Relevés horaires Beauvechain (Belgique)


Relevés horaires à Beauvechain - Vendredi 20 Juill. 2018
Heure UTC1 Température [°C] Vent [km/h] Hum. [%] Pres.4 [hPa] Visi. [Km] Nébu. [octa] Préc.5 [mm] Cond.
2m. Res. Ros. Dir.2 Vit. Moy. Raf.3
23:00 17.8 17.8 10.2 N 3.7 -- 7.4 61 1012.2(-0.1/3h) 20 -- -- --
22:00 19.0 19.0 8.9 NNO 3.7 -- 3.7 52 1012.2(-0.2/3h) 20 -- -- --
21:00 19.3 19.3 8.6 NNO 1.9 -- 9.3 50 1012.5(-0.1/3h) 20 -- -- --
20:00 19.8 19.8 9.5 ONO 3.7 -- 7.4 51 1012.3(-0.2/3h) 20 -- -- --
19:00 21.1 21.1 9.2 NO 3.7 -- 9.3 47 1012.3(-0.5/3h) 20 -- -- --
18:00 21.6 21.6 10.2 N 5.6 -- 13.0 48 1012.5(-0.9/3h) 20 -- 0.1/12h
NA
17:00 21.7 21.7 9.4 NO 3.7 -- 11.1 45 1012.6(-1.1/3h) 20 -- -- NA
16:00 22.4 22.4 8.7 ONO 7.4 -- 11.1 42 1012.8(-0.9/3h) 20 7/8 -- Il y a eu une averse de pluie à la station au cours de l'heure précédente, mais il n'y en a pas au moment de l'observation
15:00 23.8 23.8 6.8 ONO 7.4 -- 13.0 34 1013.3(-0.6/3h) 20 7/8 -- --
14:00 24.8 24.8 6.2 O 5.6 -- 9.3 30 1013.6(-0.6/3h) 20 7/8 -- --
13:00 25.0 25.0 5.9 NO 3.7 -- 9.3 29 1013.7(-0.8/3h) 20 7/8 -- --
12:00 25.4 25.4 7.0 N 3.7 -- 9.3 31 1013.8(-0.6/3h) 20 5/8 -- --
11:00 24.9 24.9 7.8 NNO 3.7 -- 9.3 34 1014.2(-0.5/3h) 20 4/8 -- --
10:00 24.1 24.1 9.0 N 3.7 -- 9.3 38 1014.7(-0.3/3h) 20 3/8 -- --
09:00 22.7 22.7 9.6 N 3.7 -- 7.4 43 1014.7(-0.5/3h) 20 3/8 -- --
08:00 21.6 21.6 12.6 NNO 1.9 -- 5.6 57 1015(-0.3/3h) 19 4/8 -- --
07:00 18.5 18.5 13.0 NNO 1.9 -- 3.7 70 1015.2(-0.1/3h) 20 4/8 -- --
06:00 16.2 16.2 10.6 NNO 1.9 -- 1.9 69 1015.6(-0.5/3h) 20 3/8 -- --
05:00 13.9 13.9 9.1 NNO 1.9 -- 1.9 73 1015.7(-0.7/3h) 20 3/8 -- --
04:00 13.8 13.8 8.7 NNO 1.9 -- 1.9 71 1015.7(-1.2/3h) 20 3/8 -- --
03:00 13.4 13.4 8.2 NNO 1.9 -- 1.9 71 1016.2(-0.9/3h) 20 -- -- --
02:00 16.5 16.5 9.3 NNO 1.9 -- 1.9 62 1016.3(-1.0/3h) 20 -- -- --
01:00 16.1 16.1 7.5 NNO 1.9 -- 1.9 57 1016.8(-0.7/3h) 20 -- -- --
00:00 17.1 17.1 7.3 NNO 0.0 -- 11.1 52 1017.1(-0.3/3h) 20 -- -- --

1 Coordinated Universal Time. Actuellement il est 18:00 locale et 16:00 UTC.

2 Le vent souffle depuis la direction indiquée vers la direction oposée.

3 Les rafales max. sont disponible 40 min après l'heure du relevé.

4 Pour les stations d'altitude (plus de 600m) le géopotentiel du niveau le plus proche de la pression obligatoire est indiqué.

5 Les stations disposant d'un diffuseur peuvent indiquer "trace". Cela signifie que des précipitations ont touchés le sol mais que la quantité est inférieure à 0.1 mm.

Récapitulatif de la journée
Température [°C] Vent [km/h] Ensoleillement4 [h] Precipitations totale5 [mm] Pression [Hpa]
Min1 Max.2 Moy.3 Max. Min Max.
13.3 25.9 0 13.0 0 h 0 min 0 1012.2 1017.1

1 Température minimale relevée entre 18:00 UTC la veille et 18:00 UTC le jour donné.

2 Température maximale relevée entre 06:00 UTC le jour donné et 06:00 UTC le lendemain.

3 Vent moyen de la journée basé sur les relevés horaires.

4 Ensoleillement en heures relevé entre 06:00 UTC la veille et 06:00 UTC le jour donné.

5 Précipitations totales tombées entre 06:00 UTC la jour donné et 06:00 UTC le lendemain.

Graphiques horaires